sensor_id;sensor_type;location;lat;lon;timestamp;temperature;humidity
67054;SHT31;53960;51.826;5.850;2023-07-22T00:00:45;16.54;79.72
67054;SHT31;53960;51.826;5.850;2023-07-22T00:03:11;16.53;80.02
67054;SHT31;53960;51.826;5.850;2023-07-22T00:05:36;16.48;80.17
67054;SHT31;53960;51.826;5.850;2023-07-22T00:08:01;16.44;80.29
67054;SHT31;53960;51.826;5.850;2023-07-22T00:10:27;16.47;80.22
67054;SHT31;53960;51.826;5.850;2023-07-22T00:12:52;16.47;79.98
67054;SHT31;53960;51.826;5.850;2023-07-22T00:15:18;16.51;79.94
67054;SHT31;53960;51.826;5.850;2023-07-22T00:17:45;16.47;79.96
67054;SHT31;53960;51.826;5.850;2023-07-22T00:20:11;16.45;79.97
67054;SHT31;53960;51.826;5.850;2023-07-22T00:22:38;16.44;79.72
67054;SHT31;53960;51.826;5.850;2023-07-22T00:25:07;16.31;79.84
67054;SHT31;53960;51.826;5.850;2023-07-22T00:27:35;16.33;79.80
67054;SHT31;53960;51.826;5.850;2023-07-22T00:30:01;16.36;79.69
67054;SHT31;53960;51.826;5.850;2023-07-22T00:32:26;16.31;79.72
67054;SHT31;53960;51.826;5.850;2023-07-22T00:34:51;16.30;79.77
67054;SHT31;53960;51.826;5.850;2023-07-22T00:37:17;16.24;79.75
67054;SHT31;53960;51.826;5.850;2023-07-22T00:39:42;16.23;79.82
67054;SHT31;53960;51.826;5.850;2023-07-22T00:42:07;16.24;79.78
67054;SHT31;53960;51.826;5.850;2023-07-22T00:44:33;16.23;79.75
67054;SHT31;53960;51.826;5.850;2023-07-22T00:46:58;16.20;79.92
67054;SHT31;53960;51.826;5.850;2023-07-22T00:49:26;16.24;79.78
67054;SHT31;53960;51.826;5.850;2023-07-22T00:51:52;16.24;80.04
67054;SHT31;53960;51.826;5.850;2023-07-22T00:54:17;16.24;80.27
67054;SHT31;53960;51.826;5.850;2023-07-22T00:56:43;16.27;80.19
67054;SHT31;53960;51.826;5.850;2023-07-22T00:59:09;16.28;80.31
67054;SHT31;53960;51.826;5.850;2023-07-22T01:01:34;16.26;80.41
67054;SHT31;53960;51.826;5.850;2023-07-22T01:03:59;16.24;80.41
67054;SHT31;53960;51.826;5.850;2023-07-22T01:06:26;16.23;80.54
67054;SHT31;53960;51.826;5.850;2023-07-22T01:08:56;16.23;80.34
67054;SHT31;53960;51.826;5.850;2023-07-22T01:11:22;16.23;80.34
67054;SHT31;53960;51.826;5.850;2023-07-22T01:13:47;16.18;80.43
67054;SHT31;53960;51.826;5.850;2023-07-22T01:16:13;16.26;80.17
67054;SHT31;53960;51.826;5.850;2023-07-22T01:18:38;16.30;79.86
67054;SHT31;53960;51.826;5.850;2023-07-22T01:21:06;16.30;79.94
67054;SHT31;53960;51.826;5.850;2023-07-22T01:23:31;16.24;79.93
67054;SHT31;53960;51.826;5.850;2023-07-22T01:25:58;16.28;79.87
67054;SHT31;53960;51.826;5.850;2023-07-22T01:28:24;16.27;79.66
67054;SHT31;53960;51.826;5.850;2023-07-22T01:30:49;16.26;79.42
67054;SHT31;53960;51.826;5.850;2023-07-22T01:33:14;16.30;79.44
67054;SHT31;53960;51.826;5.850;2023-07-22T01:35:40;16.17;79.78
67054;SHT31;53960;51.826;5.850;2023-07-22T01:38:05;16.10;79.64
67054;SHT31;53960;51.826;5.850;2023-07-22T01:40:33;16.14;79.37
67054;SHT31;53960;51.826;5.850;2023-07-22T01:42:58;16.17;79.32
67054;SHT31;53960;51.826;5.850;2023-07-22T01:45:23;16.13;79.05
67054;SHT31;53960;51.826;5.850;2023-07-22T01:47:49;16.12;79.37
67054;SHT31;53960;51.826;5.850;2023-07-22T01:50:14;16.05;79.70
67054;SHT31;53960;51.826;5.850;2023-07-22T01:52:39;16.06;79.36
67054;SHT31;53960;51.826;5.850;2023-07-22T01:55:05;16.03;79.64
67054;SHT31;53960;51.826;5.850;2023-07-22T01:57:32;15.99;79.82
67054;SHT31;53960;51.826;5.850;2023-07-22T01:59:57;15.99;79.78
67054;SHT31;53960;51.826;5.850;2023-07-22T02:02:23;15.96;80.05
67054;SHT31;53960;51.826;5.850;2023-07-22T02:04:48;15.93;80.24
67054;SHT31;53960;51.826;5.850;2023-07-22T02:07:13;15.90;80.35
67054;SHT31;53960;51.826;5.850;2023-07-22T02:09:40;15.99;80.11
67054;SHT31;53960;51.826;5.850;2023-07-22T02:12:06;15.90;80.35
67054;SHT31;53960;51.826;5.850;2023-07-22T02:14:32;15.93;80.51
67054;SHT31;53960;51.826;5.850;2023-07-22T02:16:58;15.93;80.63
67054;SHT31;53960;51.826;5.850;2023-07-22T02:19:24;15.95;80.31
67054;SHT31;53960;51.826;5.850;2023-07-22T02:21:49;15.90;80.54
67054;SHT31;53960;51.826;5.850;2023-07-22T02:24:14;15.92;80.51
67054;SHT31;53960;51.826;5.850;2023-07-22T02:26:40;15.96;80.61
67054;SHT31;53960;51.826;5.850;2023-07-22T02:29:05;15.85;81.01
67054;SHT31;53960;51.826;5.850;2023-07-22T02:31:31;15.89;80.88
67054;SHT31;53960;51.826;5.850;2023-07-22T02:33:56;15.87;80.87
67054;SHT31;53960;51.826;5.850;2023-07-22T02:36:21;15.86;81.10
67054;SHT31;53960;51.826;5.850;2023-07-22T02:38:47;15.87;81.06
67054;SHT31;53960;51.826;5.850;2023-07-22T02:41:12;15.90;80.98
67054;SHT31;53960;51.826;5.850;2023-07-22T02:43:37;15.85;81.19
67054;SHT31;53960;51.826;5.850;2023-07-22T02:46:04;15.83;81.29
67054;SHT31;53960;51.826;5.850;2023-07-22T02:48:32;15.75;81.63
67054;SHT31;53960;51.826;5.850;2023-07-22T02:51:08;15.76;81.57
67054;SHT31;53960;51.826;5.850;2023-07-22T02:53:35;15.87;81.22
67054;SHT31;53960;51.826;5.850;2023-07-22T02:56:02;15.81;81.50
67054;SHT31;53960;51.826;5.850;2023-07-22T02:58:28;15.82;81.58
67054;SHT31;53960;51.826;5.850;2023-07-22T03:00:53;15.66;81.85
67054;SHT31;53960;51.826;5.850;2023-07-22T03:03:18;15.73;81.63
67054;SHT31;53960;51.826;5.850;2023-07-22T03:05:44;15.66;81.62
67054;SHT31;53960;51.826;5.850;2023-07-22T03:08:10;15.63;81.88
67054;SHT31;53960;51.826;5.850;2023-07-22T03:10:36;15.65;81.67
67054;SHT31;53960;51.826;5.850;2023-07-22T03:13:01;15.65;81.75
67054;SHT31;53960;51.826;5.850;2023-07-22T03:15:27;15.62;81.88
67054;SHT31;53960;51.826;5.850;2023-07-22T03:17:54;15.63;81.91
67054;SHT31;53960;51.826;5.850;2023-07-22T03:20:21;15.51;82.30
67054;SHT31;53960;51.826;5.850;2023-07-22T03:22:47;15.48;82.28
67054;SHT31;53960;51.826;5.850;2023-07-22T03:25:13;15.41;82.40
67054;SHT31;53960;51.826;5.850;2023-07-22T03:27:39;15.41;82.46
67054;SHT31;53960;51.826;5.850;2023-07-22T03:30:06;15.38;82.54
67054;SHT31;53960;51.826;5.850;2023-07-22T03:32:33;15.42;82.34
67054;SHT31;53960;51.826;5.850;2023-07-22T03:34:58;15.34;82.48
67054;SHT31;53960;51.826;5.850;2023-07-22T03:37:23;15.25;82.74
67054;SHT31;53960;51.826;5.850;2023-07-22T03:39:49;15.27;82.79
67054;SHT31;53960;51.826;5.850;2023-07-22T03:42:15;15.21;82.93
67054;SHT31;53960;51.826;5.850;2023-07-22T03:44:41;15.28;82.73
67054;SHT31;53960;51.826;5.850;2023-07-22T03:47:06;15.35;82.67
67054;SHT31;53960;51.826;5.850;2023-07-22T03:49:31;15.35;82.70
67054;SHT31;53960;51.826;5.850;2023-07-22T03:51:57;15.30;82.64
67054;SHT31;53960;51.826;5.850;2023-07-22T03:54:22;15.25;82.81
67054;SHT31;53960;51.826;5.850;2023-07-22T03:56:47;15.24;82.84
67054;SHT31;53960;51.826;5.850;2023-07-22T03:59:13;15.30;82.89
67054;SHT31;53960;51.826;5.850;2023-07-22T04:01:38;15.28;82.72
67054;SHT31;53960;51.826;5.850;2023-07-22T04:04:03;15.18;82.91
67054;SHT31;53960;51.826;5.850;2023-07-22T04:06:29;15.24;82.94
67054;SHT31;53960;51.826;5.850;2023-07-22T04:08:54;15.20;83.03
67054;SHT31;53960;51.826;5.850;2023-07-22T04:11:19;15.17;83.24
67054;SHT31;53960;51.826;5.850;2023-07-22T04:13:45;15.20;83.10
67054;SHT31;53960;51.826;5.850;2023-07-22T04:16:10;15.23;82.89
67054;SHT31;53960;51.826;5.850;2023-07-22T04:18:35;15.32;82.62
67054;SHT31;53960;51.826;5.850;2023-07-22T04:21:01;15.24;82.82
67054;SHT31;53960;51.826;5.850;2023-07-22T04:23:26;15.20;83.06
67054;SHT31;53960;51.826;5.850;2023-07-22T04:25:52;15.24;82.82
67054;SHT31;53960;51.826;5.850;2023-07-22T04:28:18;15.31;82.51
67054;SHT31;53960;51.826;5.850;2023-07-22T04:30:54;15.31;82.39
67054;SHT31;53960;51.826;5.850;2023-07-22T04:33:20;15.28;82.49
67054;SHT31;53960;51.826;5.850;2023-07-22T04:35:45;15.30;82.24
67054;SHT31;53960;51.826;5.850;2023-07-22T04:38:10;15.31;82.27
67054;SHT31;53960;51.826;5.850;2023-07-22T04:40:36;15.37;82.21
67054;SHT31;53960;51.826;5.850;2023-07-22T04:43:02;15.41;82.00
67054;SHT31;53960;51.826;5.850;2023-07-22T04:45:28;15.44;81.87
67054;SHT31;53960;51.826;5.850;2023-07-22T04:47:53;15.42;81.87
67054;SHT31;53960;51.826;5.850;2023-07-22T04:50:19;15.47;81.93
67054;SHT31;53960;51.826;5.850;2023-07-22T04:52:46;15.52;81.66
67054;SHT31;53960;51.826;5.850;2023-07-22T04:55:11;15.61;81.27
67054;SHT31;53960;51.826;5.850;2023-07-22T04:57:38;15.63;81.24
67054;SHT31;53960;51.826;5.850;2023-07-22T05:00:05;15.70;81.17
67054;SHT31;53960;51.826;5.850;2023-07-22T05:02:32;15.68;81.04
67054;SHT31;53960;51.826;5.850;2023-07-22T05:04:57;15.65;81.10
67054;SHT31;53960;51.826;5.850;2023-07-22T05:07:22;15.69;81.28
67054;SHT31;53960;51.826;5.850;2023-07-22T05:09:49;15.72;81.10
67054;SHT31;53960;51.826;5.850;2023-07-22T05:12:17;15.75;80.78
67054;SHT31;53960;51.826;5.850;2023-07-22T05:14:42;15.73;80.86
67054;SHT31;53960;51.826;5.850;2023-07-22T05:17:08;15.76;80.89
67054;SHT31;53960;51.826;5.850;2023-07-22T05:19:33;15.82;80.86
67054;SHT31;53960;51.826;5.850;2023-07-22T05:21:58;15.83;80.78
67054;SHT31;53960;51.826;5.850;2023-07-22T05:24:23;15.92;80.94
67054;SHT31;53960;51.826;5.850;2023-07-22T05:26:49;15.90;80.48
67054;SHT31;53960;51.826;5.850;2023-07-22T05:29:14;15.93;80.58
67054;SHT31;53960;51.826;5.850;2023-07-22T05:31:40;16.00;80.65
67054;SHT31;53960;51.826;5.850;2023-07-22T05:34:05;16.06;80.26
67054;SHT31;53960;51.826;5.850;2023-07-22T05:36:30;16.07;80.25
67054;SHT31;53960;51.826;5.850;2023-07-22T05:38:57;16.12;80.36
67054;SHT31;53960;51.826;5.850;2023-07-22T05:41:22;16.21;80.01
67054;SHT31;53960;51.826;5.850;2023-07-22T05:43:48;16.26;80.00
67054;SHT31;53960;51.826;5.850;2023-07-22T05:46:13;16.31;79.51
67054;SHT31;53960;51.826;5.850;2023-07-22T05:48:38;16.36;79.46
67054;SHT31;53960;51.826;5.850;2023-07-22T05:51:04;16.36;79.83
67054;SHT31;53960;51.826;5.850;2023-07-22T05:53:30;16.47;79.28
67054;SHT31;53960;51.826;5.850;2023-07-22T05:55:56;16.41;79.49
67054;SHT31;53960;51.826;5.850;2023-07-22T05:58:21;16.41;79.72
67054;SHT31;53960;51.826;5.850;2023-07-22T06:00:47;16.54;79.78
67054;SHT31;53960;51.826;5.850;2023-07-22T06:03:12;16.63;79.84
67054;SHT31;53960;51.826;5.850;2023-07-22T06:05:38;16.82;78.94
67054;SHT31;53960;51.826;5.850;2023-07-22T06:08:03;16.91;78.59
67054;SHT31;53960;51.826;5.850;2023-07-22T06:10:29;17.03;78.28
67054;SHT31;53960;51.826;5.850;2023-07-22T06:12:56;17.11;78.35
67054;SHT31;53960;51.826;5.850;2023-07-22T06:15:22;17.22;77.46
67054;SHT31;53960;51.826;5.850;2023-07-22T06:17:47;17.23;78.16
67054;SHT31;53960;51.826;5.850;2023-07-22T06:20:12;17.26;77.80
67054;SHT31;53960;51.826;5.850;2023-07-22T06:22:38;17.22;78.17
67054;SHT31;53960;51.826;5.850;2023-07-22T06:25:04;17.23;78.01
67054;SHT31;53960;51.826;5.850;2023-07-22T06:27:30;17.26;77.94
67054;SHT31;53960;51.826;5.850;2023-07-22T06:29:55;17.27;77.79
67054;SHT31;53960;51.826;5.850;2023-07-22T06:32:21;17.25;77.98
67054;SHT31;53960;51.826;5.850;2023-07-22T06:34:47;17.29;77.86
67054;SHT31;53960;51.826;5.850;2023-07-22T06:37:12;17.34;77.77
67054;SHT31;53960;51.826;5.850;2023-07-22T06:39:37;17.40;78.37
67054;SHT31;53960;51.826;5.850;2023-07-22T06:42:03;17.43;78.40
67054;SHT31;53960;51.826;5.850;2023-07-22T06:44:29;17.53;78.03
67054;SHT31;53960;51.826;5.850;2023-07-22T06:46:55;17.54;77.70
67054;SHT31;53960;51.826;5.850;2023-07-22T06:49:20;17.54;77.77
67054;SHT31;53960;51.826;5.850;2023-07-22T06:51:45;17.66;77.41
67054;SHT31;53960;51.826;5.850;2023-07-22T06:54:11;17.80;77.10
67054;SHT31;53960;51.826;5.850;2023-07-22T06:56:36;17.87;76.97
67054;SHT31;53960;51.826;5.850;2023-07-22T06:59:01;17.91;77.01
67054;SHT31;53960;51.826;5.850;2023-07-22T07:01:27;17.98;77.16
67054;SHT31;53960;51.826;5.850;2023-07-22T07:03:52;18.04;76.84
67054;SHT31;53960;51.826;5.850;2023-07-22T07:06:17;18.08;77.00
67054;SHT31;53960;51.826;5.850;2023-07-22T07:08:43;18.08;76.97
67054;SHT31;53960;51.826;5.850;2023-07-22T07:11:08;18.04;77.49
67054;SHT31;53960;51.826;5.850;2023-07-22T07:13:33;18.06;77.43
67054;SHT31;53960;51.826;5.850;2023-07-22T07:16:19;18.05;77.27
67054;SHT31;53960;51.826;5.850;2023-07-22T07:18:45;18.08;77.11
67054;SHT31;53960;51.826;5.850;2023-07-22T07:21:10;18.12;77.24
67054;SHT31;53960;51.826;5.850;2023-07-22T07:23:36;18.24;77.38
67054;SHT31;53960;51.826;5.850;2023-07-22T07:26:01;18.28;77.05
67054;SHT31;53960;51.826;5.850;2023-07-22T07:28:27;18.36;76.75
67054;SHT31;53960;51.826;5.850;2023-07-22T07:30:52;18.36;76.57
67054;SHT31;53960;51.826;5.850;2023-07-22T07:33:17;18.33;76.79
67054;SHT31;53960;51.826;5.850;2023-07-22T07:35:46;18.41;76.92
67054;SHT31;53960;51.826;5.850;2023-07-22T07:38:11;18.48;77.02
67054;SHT31;53960;51.826;5.850;2023-07-22T07:40:37;18.56;77.54
67054;SHT31;53960;51.826;5.850;2023-07-22T07:43:02;18.67;76.54
67054;SHT31;53960;51.826;5.850;2023-07-22T07:45:27;18.74;75.85
67054;SHT31;53960;51.826;5.850;2023-07-22T07:47:53;18.82;76.31
67054;SHT31;53960;51.826;5.850;2023-07-22T07:50:18;18.87;76.58
67054;SHT31;53960;51.826;5.850;2023-07-22T07:52:43;18.90;76.26
67054;SHT31;53960;51.826;5.850;2023-07-22T07:55:09;18.91;76.34
67054;SHT31;53960;51.826;5.850;2023-07-22T07:57:34;18.93;76.09
67054;SHT31;53960;51.826;5.850;2023-07-22T08:00:00;19.01;76.40
67054;SHT31;53960;51.826;5.850;2023-07-22T08:02:25;19.08;75.15
67054;SHT31;53960;51.826;5.850;2023-07-22T08:04:51;19.15;74.66
67054;SHT31;53960;51.826;5.850;2023-07-22T08:07:17;19.12;75.36
67054;SHT31;53960;51.826;5.850;2023-07-22T08:09:43;19.20;75.37
67054;SHT31;53960;51.826;5.850;2023-07-22T08:12:08;19.28;74.63
67054;SHT31;53960;51.826;5.850;2023-07-22T08:14:34;19.36;74.15
67054;SHT31;53960;51.826;5.850;2023-07-22T08:16:59;19.41;74.63
67054;SHT31;53960;51.826;5.850;2023-07-22T08:19:24;19.44;74.55
67054;SHT31;53960;51.826;5.850;2023-07-22T08:21:50;19.52;73.57
67054;SHT31;53960;51.826;5.850;2023-07-22T08:24:15;19.47;73.53
67054;SHT31;53960;51.826;5.850;2023-07-22T08:26:40;19.54;74.09
67054;SHT31;53960;51.826;5.850;2023-07-22T08:29:06;19.57;73.65
67054;SHT31;53960;51.826;5.850;2023-07-22T08:31:31;19.61;73.46
67054;SHT31;53960;51.826;5.850;2023-07-22T08:33:57;19.69;73.37
67054;SHT31;53960;51.826;5.850;2023-07-22T08:36:22;19.80;73.09
67054;SHT31;53960;51.826;5.850;2023-07-22T08:38:47;19.90;73.35
67054;SHT31;53960;51.826;5.850;2023-07-22T08:41:15;19.96;73.17
67054;SHT31;53960;51.826;5.850;2023-07-22T08:43:41;19.97;72.84
67054;SHT31;53960;51.826;5.850;2023-07-22T08:46:07;19.89;72.10
67054;SHT31;53960;51.826;5.850;2023-07-22T08:48:34;19.85;72.67
67054;SHT31;53960;51.826;5.850;2023-07-22T08:51:04;19.85;73.18
67054;SHT31;53960;51.826;5.850;2023-07-22T08:53:30;19.92;73.19
67054;SHT31;53960;51.826;5.850;2023-07-22T08:55:58;20.08;71.19
67054;SHT31;53960;51.826;5.850;2023-07-22T08:58:24;20.13;71.34
67054;SHT31;53960;51.826;5.850;2023-07-22T09:00:50;20.24;72.07
67054;SHT31;53960;51.826;5.850;2023-07-22T09:03:16;20.29;72.33
67054;SHT31;53960;51.826;5.850;2023-07-22T09:05:42;20.34;71.46
67054;SHT31;53960;51.826;5.850;2023-07-22T09:08:08;20.33;71.17
67054;SHT31;53960;51.826;5.850;2023-07-22T09:10:34;20.30;70.96
67054;SHT31;53960;51.826;5.850;2023-07-22T09:13:01;20.37;69.33
67054;SHT31;53960;51.826;5.850;2023-07-22T09:15:27;20.47;69.57
67054;SHT31;53960;51.826;5.850;2023-07-22T09:17:53;20.54;68.70
67054;SHT31;53960;51.826;5.850;2023-07-22T09:20:19;20.61;68.96
67054;SHT31;53960;51.826;5.850;2023-07-22T09:22:50;20.68;70.26
67054;SHT31;53960;51.826;5.850;2023-07-22T09:25:20;20.69;67.81
67054;SHT31;53960;51.826;5.850;2023-07-22T09:27:46;20.69;67.50
67054;SHT31;53960;51.826;5.850;2023-07-22T09:30:29;20.72;67.74
67054;SHT31;53960;51.826;5.850;2023-07-22T09:32:57;20.61;67.45
67054;SHT31;53960;51.826;5.850;2023-07-22T09:35:26;20.60;67.09
67054;SHT31;53960;51.826;5.850;2023-07-22T09:37:52;20.57;68.30
67054;SHT31;53960;51.826;5.850;2023-07-22T09:40:36;20.54;67.30
67054;SHT31;53960;51.826;5.850;2023-07-22T09:43:04;20.60;67.63
67054;SHT31;53960;51.826;5.850;2023-07-22T09:45:30;20.64;67.72
67054;SHT31;53960;51.826;5.850;2023-07-22T09:47:56;20.65;67.39
67054;SHT31;53960;51.826;5.850;2023-07-22T09:50:24;20.77;67.88
67054;SHT31;53960;51.826;5.850;2023-07-22T09:52:51;20.82;67.14
67054;SHT31;53960;51.826;5.850;2023-07-22T09:55:20;20.84;66.29
67054;SHT31;53960;51.826;5.850;2023-07-22T09:57:52;20.85;66.21
67054;SHT31;53960;51.826;5.850;2023-07-22T10:00:18;20.87;67.63
67054;SHT31;53960;51.826;5.850;2023-07-22T10:02:48;20.91;67.07
67054;SHT31;53960;51.826;5.850;2023-07-22T10:05:18;20.94;65.49
67054;SHT31;53960;51.826;5.850;2023-07-22T10:07:49;20.94;64.99
67054;SHT31;53960;51.826;5.850;2023-07-22T10:10:18;20.95;65.04
67054;SHT31;53960;51.826;5.850;2023-07-22T10:12:44;21.02;64.06
67054;SHT31;53960;51.826;5.850;2023-07-22T10:15:12;21.06;63.80
67054;SHT31;53960;51.826;5.850;2023-07-22T10:17:40;21.09;63.69
67054;SHT31;53960;51.826;5.850;2023-07-22T10:20:06;21.08;64.04
67054;SHT31;53960;51.826;5.850;2023-07-22T10:22:35;21.15;64.47
67054;SHT31;53960;51.826;5.850;2023-07-22T10:25:03;21.22;64.64
67054;SHT31;53960;51.826;5.850;2023-07-22T10:27:30;21.26;64.05
67054;SHT31;53960;51.826;5.850;2023-07-22T10:29:56;21.33;64.09
67054;SHT31;53960;51.826;5.850;2023-07-22T10:32:21;21.51;63.37
67054;SHT31;53960;51.826;5.850;2023-07-22T10:34:47;21.50;63.82
67054;SHT31;53960;51.826;5.850;2023-07-22T10:37:12;21.45;62.84
67054;SHT31;53960;51.826;5.850;2023-07-22T10:39:37;21.49;61.67
67054;SHT31;53960;51.826;5.850;2023-07-22T10:42:06;21.53;63.53
67054;SHT31;53960;51.826;5.850;2023-07-22T10:44:41;21.70;61.11
67054;SHT31;53960;51.826;5.850;2023-07-22T10:47:07;21.78;61.43
67054;SHT31;53960;51.826;5.850;2023-07-22T10:49:47;21.88;61.48
67054;SHT31;53960;51.826;5.850;2023-07-22T10:52:13;21.97;61.35
67054;SHT31;53960;51.826;5.850;2023-07-22T10:54:39;22.01;61.49
67054;SHT31;53960;51.826;5.850;2023-07-22T11:00:00;22.07;61.52
67054;SHT31;53960;51.826;5.850;2023-07-22T11:02:27;22.00;63.14
67054;SHT31;53960;51.826;5.850;2023-07-22T11:04:56;21.87;62.01
67054;SHT31;53960;51.826;5.850;2023-07-22T11:07:32;21.87;62.10
67054;SHT31;53960;51.826;5.850;2023-07-22T11:09:58;21.78;62.04
67054;SHT31;53960;51.826;5.850;2023-07-22T11:12:24;21.83;62.82
67054;SHT31;53960;51.826;5.850;2023-07-22T11:15:02;21.95;63.29
67054;SHT31;53960;51.826;5.850;2023-07-22T11:17:30;21.94;63.80
67054;SHT31;53960;51.826;5.850;2023-07-22T11:19:59;22.02;63.20
67054;SHT31;53960;51.826;5.850;2023-07-22T11:22:25;22.00;62.58
67054;SHT31;53960;51.826;5.850;2023-07-22T11:24:52;21.91;62.74
67054;SHT31;53960;51.826;5.850;2023-07-22T11:27:17;21.93;63.24
67054;SHT31;53960;51.826;5.850;2023-07-22T11:29:43;21.94;63.74
67054;SHT31;53960;51.826;5.850;2023-07-22T11:32:19;22.04;63.32
67054;SHT31;53960;51.826;5.850;2023-07-22T11:34:47;22.18;63.10
67054;SHT31;53960;51.826;5.850;2023-07-22T11:37:13;22.24;62.41
67054;SHT31;53960;51.826;5.850;2023-07-22T11:39:39;22.29;62.35
67054;SHT31;53960;51.826;5.850;2023-07-22T11:42:07;22.29;62.25
67054;SHT31;53960;51.826;5.850;2023-07-22T11:44:32;22.44;60.91
67054;SHT31;53960;51.826;5.850;2023-07-22T11:47:03;22.52;60.05
67054;SHT31;53960;51.826;5.850;2023-07-22T11:52:12;22.56;60.51
67054;SHT31;53960;51.826;5.850;2023-07-22T11:54:42;22.53;58.86
67054;SHT31;53960;51.826;5.850;2023-07-22T11:57:13;22.59;59.50
67054;SHT31;53960;51.826;5.850;2023-07-22T11:59:43;22.63;60.62
67054;SHT31;53960;51.826;5.850;2023-07-22T12:02:13;22.57;58.12
67054;SHT31;53960;51.826;5.850;2023-07-22T12:04:39;22.73;58.76
67054;SHT31;53960;51.826;5.850;2023-07-22T12:07:04;22.92;58.86
67054;SHT31;53960;51.826;5.850;2023-07-22T12:09:30;22.87;58.84
67054;SHT31;53960;51.826;5.850;2023-07-22T12:11:57;22.79;57.73
67054;SHT31;53960;51.826;5.850;2023-07-22T12:14:23;22.72;58.18
67054;SHT31;53960;51.826;5.850;2023-07-22T12:16:55;22.66;57.32
67054;SHT31;53960;51.826;5.850;2023-07-22T12:19:22;22.76;57.47
67054;SHT31;53960;51.826;5.850;2023-07-22T12:21:47;22.87;56.72
67054;SHT31;53960;51.826;5.850;2023-07-22T12:24:14;22.79;56.78
67054;SHT31;53960;51.826;5.850;2023-07-22T12:26:39;22.84;56.17
67054;SHT31;53960;51.826;5.850;2023-07-22T12:29:05;23.10;56.55
67054;SHT31;53960;51.826;5.850;2023-07-22T12:31:30;23.03;55.85
67054;SHT31;53960;51.826;5.850;2023-07-22T12:33:55;22.86;55.60
67054;SHT31;53960;51.826;5.850;2023-07-22T12:36:21;22.53;57.60
67054;SHT31;53960;51.826;5.850;2023-07-22T12:38:46;22.35;58.30
67054;SHT31;53960;51.826;5.850;2023-07-22T12:41:12;22.14;57.98
67054;SHT31;53960;51.826;5.850;2023-07-22T12:43:37;21.97;58.13
67054;SHT31;53960;51.826;5.850;2023-07-22T12:46:02;21.93;57.62
67054;SHT31;53960;51.826;5.850;2023-07-22T12:48:28;21.90;57.16
67054;SHT31;53960;51.826;5.850;2023-07-22T12:50:53;21.81;57.46
67054;SHT31;53960;51.826;5.850;2023-07-22T12:53:18;21.76;58.16
67054;SHT31;53960;51.826;5.850;2023-07-22T12:55:44;21.71;57.95
67054;SHT31;53960;51.826;5.850;2023-07-22T12:58:09;21.77;57.83
67054;SHT31;53960;51.826;5.850;2023-07-22T13:00:34;21.81;57.81
67054;SHT31;53960;51.826;5.850;2023-07-22T13:03:00;21.95;57.71
67054;SHT31;53960;51.826;5.850;2023-07-22T13:05:25;22.19;57.15
67054;SHT31;53960;51.826;5.850;2023-07-22T13:07:50;22.29;57.37
67054;SHT31;53960;51.826;5.850;2023-07-22T13:10:16;22.45;56.71
67054;SHT31;53960;51.826;5.850;2023-07-22T13:12:45;22.51;56.44
67054;SHT31;53960;51.826;5.850;2023-07-22T13:15:12;22.79;56.20
67054;SHT31;53960;51.826;5.850;2023-07-22T13:17:37;22.87;56.60
67054;SHT31;53960;51.826;5.850;2023-07-22T13:20:06;23.04;55.70
67054;SHT31;53960;51.826;5.850;2023-07-22T13:22:32;23.04;55.62
67054;SHT31;53960;51.826;5.850;2023-07-22T13:24:58;23.00;55.75
67054;SHT31;53960;51.826;5.850;2023-07-22T13:27:23;23.00;55.71
67054;SHT31;53960;51.826;5.850;2023-07-22T13:29:48;23.11;55.47
67054;SHT31;53960;51.826;5.850;2023-07-22T13:32:14;23.08;55.54
67054;SHT31;53960;51.826;5.850;2023-07-22T13:34:39;22.93;55.17
67054;SHT31;53960;51.826;5.850;2023-07-22T13:37:04;22.89;55.76
67054;SHT31;53960;51.826;5.850;2023-07-22T13:39:31;22.96;56.30
67054;SHT31;53960;51.826;5.850;2023-07-22T13:41:56;22.92;56.49
67054;SHT31;53960;51.826;5.850;2023-07-22T13:44:21;22.99;55.60
67054;SHT31;53960;51.826;5.850;2023-07-22T13:46:46;23.07;56.08
67054;SHT31;53960;51.826;5.850;2023-07-22T13:49:13;23.02;55.61
67054;SHT31;53960;51.826;5.850;2023-07-22T13:51:39;22.87;54.96
67054;SHT31;53960;51.826;5.850;2023-07-22T13:54:04;22.76;55.34
67054;SHT31;53960;51.826;5.850;2023-07-22T13:56:29;22.65;55.84
67054;SHT31;53960;51.826;5.850;2023-07-22T13:58:55;22.55;55.75
67054;SHT31;53960;51.826;5.850;2023-07-22T14:01:20;22.35;56.39
67054;SHT31;53960;51.826;5.850;2023-07-22T14:03:45;22.21;56.99
67054;SHT31;53960;51.826;5.850;2023-07-22T14:06:11;22.15;56.92
67054;SHT31;53960;51.826;5.850;2023-07-22T14:08:36;22.12;56.21
67054;SHT31;53960;51.826;5.850;2023-07-22T14:11:01;22.04;56.44
67054;SHT31;53960;51.826;5.850;2023-07-22T14:13:27;21.94;56.33
67054;SHT31;53960;51.826;5.850;2023-07-22T14:15:52;21.91;57.04
67054;SHT31;53960;51.826;5.850;2023-07-22T14:18:18;21.95;56.84
67054;SHT31;53960;51.826;5.850;2023-07-22T14:20:44;21.94;55.78
67054;SHT31;53960;51.826;5.850;2023-07-22T14:23:10;22.05;56.25
67054;SHT31;53960;51.826;5.850;2023-07-22T14:25:36;22.12;56.55
67054;SHT31;53960;51.826;5.850;2023-07-22T14:28:01;22.24;55.98
67054;SHT31;53960;51.826;5.850;2023-07-22T14:30:26;22.31;56.33
67054;SHT31;53960;51.826;5.850;2023-07-22T14:32:52;22.39;55.80
67054;SHT31;53960;51.826;5.850;2023-07-22T14:35:17;22.45;55.55
67054;SHT31;53960;51.826;5.850;2023-07-22T14:37:43;22.48;58.39
67054;SHT31;53960;51.826;5.850;2023-07-22T14:40:08;22.36;61.02
67054;SHT31;53960;51.826;5.850;2023-07-22T14:42:34;22.28;61.36
67054;SHT31;53960;51.826;5.850;2023-07-22T14:44:59;22.21;61.21
67054;SHT31;53960;51.826;5.850;2023-07-22T14:47:25;22.21;60.73
67054;SHT31;53960;51.826;5.850;2023-07-22T14:49:51;22.24;60.39
67054;SHT31;53960;51.826;5.850;2023-07-22T14:52:16;22.31;60.11
67054;SHT31;53960;51.826;5.850;2023-07-22T14:54:42;22.25;59.90
67054;SHT31;53960;51.826;5.850;2023-07-22T14:57:08;22.14;59.93
67054;SHT31;53960;51.826;5.850;2023-07-22T14:59:33;22.07;62.11
67054;SHT31;53960;51.826;5.850;2023-07-22T15:01:58;21.91;63.07
67054;SHT31;53960;51.826;5.850;2023-07-22T15:04:24;21.76;64.05
67054;SHT31;53960;51.826;5.850;2023-07-22T15:06:50;21.63;65.53
67054;SHT31;53960;51.826;5.850;2023-07-22T15:09:15;21.42;66.90
67054;SHT31;53960;51.826;5.850;2023-07-22T15:11:40;21.30;67.59
67054;SHT31;53960;51.826;5.850;2023-07-22T15:14:06;21.22;68.12
67054;SHT31;53960;51.826;5.850;2023-07-22T15:16:32;21.12;68.65
67054;SHT31;53960;51.826;5.850;2023-07-22T15:18:58;21.03;68.61
67054;SHT31;53960;51.826;5.850;2023-07-22T15:21:23;20.95;69.22
67054;SHT31;53960;51.826;5.850;2023-07-22T15:23:49;20.88;69.03
67054;SHT31;53960;51.826;5.850;2023-07-22T15:26:14;20.81;69.23
67054;SHT31;53960;51.826;5.850;2023-07-22T15:28:39;20.78;68.97